createdAt,value
2019-05-18T00:00:14.628Z,69.96
2019-05-18T00:01:15.069Z,69.65
2019-05-18T00:02:15.492Z,69.65
2019-05-18T00:03:15.950Z,69.65
2019-05-18T00:04:16.369Z,69.56
2019-05-18T00:05:16.792Z,69.86
2019-05-18T00:06:17.232Z,69.56
2019-05-18T00:07:17.659Z,70.17
2019-05-18T00:08:18.099Z,70.37
2019-05-18T00:09:18.534Z,70.27
2019-05-18T00:10:18.957Z,70.51
2019-05-18T00:11:19.465Z,70.37
2019-05-18T00:12:19.906Z,70.57
2019-05-18T00:13:20.343Z,70.30
2019-05-18T00:14:20.783Z,70.40
2019-05-18T00:15:21.226Z,70.61
2019-05-18T00:16:21.666Z,70.57
2019-05-18T00:17:25.257Z,70.40
2019-05-18T00:18:26.025Z,70.40
2019-05-18T00:19:26.471Z,70.37
2019-05-18T00:20:26.889Z,70.51
2019-05-18T00:21:27.338Z,70.10
2019-05-18T00:22:27.764Z,70.10
2019-05-18T00:23:28.191Z,70.71
2019-05-18T00:24:28.630Z,70.51
2019-05-18T00:25:29.067Z,70.71
2019-05-18T00:26:29.502Z,70.71
2019-05-18T00:27:29.928Z,70.61
2019-05-18T00:28:30.349Z,70.61
2019-05-18T00:29:30.874Z,70.61
2019-05-18T00:30:31.290Z,70.81
2019-05-18T00:31:31.773Z,70.51
2019-05-18T00:32:32.197Z,70.61
2019-05-18T00:33:32.632Z,70.54
2019-05-18T00:34:33.093Z,70.84
2019-05-18T00:35:33.522Z,70.54
2019-05-18T00:36:33.964Z,71.05
2019-05-18T00:37:34.397Z,70.43
2019-05-18T00:38:39.812Z,71.15
2019-05-18T00:39:40.291Z,70.95
2019-05-18T00:40:40.746Z,71.46
2019-05-18T00:41:41.192Z,71.36
2019-05-18T00:42:41.697Z,71.15
2019-05-18T00:43:42.131Z,71.36
2019-05-18T00:44:42.553Z,71.56
2019-05-18T00:45:42.998Z,71.56
2019-05-18T00:46:43.447Z,71.56
2019-05-18T00:47:43.886Z,71.15
2019-05-18T00:48:44.326Z,71.25
2019-05-18T00:49:44.775Z,71.05
2019-05-18T00:50:45.206Z,71.15
2019-05-18T00:51:45.643Z,71.15
2019-05-18T00:52:46.096Z,71.19
2019-05-18T00:53:46.520Z,71.08
2019-05-18T00:54:46.938Z,71.15
2019-05-18T00:55:47.371Z,71.05
2019-05-18T00:56:47.805Z,70.98
2019-05-18T00:57:48.229Z,70.98
2019-05-18T00:58:48.656Z,71.19
2019-05-18T00:59:49.081Z,71.08
2019-05-18T01:00:49.503Z,71.29
2019-05-18T01:01:49.953Z,71.15
2019-05-18T01:02:50.387Z,71.19
2019-05-18T01:03:50.847Z,71.08
2019-05-18T01:04:51.274Z,71.08
2019-05-18T01:05:51.698Z,70.98
2019-05-18T01:06:52.191Z,71.19
2019-05-18T01:07:52.695Z,70.98
2019-05-18T01:08:53.118Z,70.98
2019-05-18T01:09:54.572Z,70.98
2019-05-18T01:10:54.997Z,70.98
2019-05-18T01:11:55.466Z,70.98
2019-05-18T01:12:55.904Z,71.19
2019-05-18T01:13:56.326Z,70.98
2019-05-18T01:14:56.751Z,70.98
2019-05-18T01:15:57.199Z,71.08
2019-05-18T01:16:57.659Z,71.08
2019-05-18T01:18:01.851Z,70.88
2019-05-18T01:19:02.663Z,71.12
2019-05-18T01:20:03.108Z,70.91
2019-05-18T01:21:03.552Z,70.71
2019-05-18T01:22:03.982Z,71.12
2019-05-18T01:23:04.460Z,70.61
2019-05-18T01:24:04.889Z,70.71
2019-05-18T01:25:05.317Z,71.12
2019-05-18T01:26:05.761Z,71.01
2019-05-18T01:27:06.203Z,70.91
2019-05-18T01:28:06.641Z,71.01
2019-05-18T01:29:07.073Z,71.04
2019-05-18T01:30:07.503Z,71.45
2019-05-18T01:31:07.955Z,71.22
2019-05-18T01:32:08.381Z,71.22
2019-05-18T01:33:08.797Z,71.62
2019-05-18T01:34:09.230Z,71.25
2019-05-18T01:35:09.672Z,71.77
2019-05-18T01:36:10.121Z,71.45
2019-05-18T01:37:10.565Z,71.42
2019-05-18T01:38:10.999Z,71.66
2019-05-18T01:39:11.434Z,71.77
2019-05-18T01:40:11.861Z,71.77
2019-05-18T01:41:12.315Z,71.77
2019-05-18T01:42:12.752Z,71.77
2019-05-18T01:43:13.174Z,71.45
2019-05-18T01:44:13.602Z,71.56
2019-05-18T01:45:17.327Z,71.66
2019-05-18T01:46:18.118Z,71.45
2019-05-18T01:47:18.541Z,71.56
2019-05-18T01:48:18.983Z,71.86
2019-05-18T01:49:19.409Z,71.77
2019-05-18T01:50:19.856Z,71.66
2019-05-18T01:51:20.297Z,71.86
2019-05-18T01:52:20.717Z,72.07
2019-05-18T01:53:21.150Z,71.66
2019-05-18T01:54:21.596Z,71.86
2019-05-18T01:55:22.024Z,71.77
2019-05-18T01:56:22.475Z,71.80
2019-05-18T01:57:22.897Z,72.00
2019-05-18T01:58:23.319Z,72.17
2019-05-18T01:59:23.744Z,72.31
2019-05-18T02:00:24.194Z,72.31
2019-05-18T02:01:24.678Z,72.20
2019-05-18T02:02:25.108Z,72.11
2019-05-18T02:03:26.040Z,72.52
2019-05-18T02:04:28.580Z,72.11
2019-05-18T02:05:29.008Z,72.00
2019-05-18T02:06:30.460Z,72.41
2019-05-18T02:07:30.900Z,72.41
2019-05-18T02:08:31.346Z,72.31
2019-05-18T02:09:31.774Z,72.20
2019-05-18T02:10:32.206Z,72.31
2019-05-18T02:11:32.643Z,72.11
2019-05-18T02:12:35.160Z,72.24
2019-05-18T02:13:35.580Z,72.24
2019-05-18T02:14:36.020Z,72.24
2019-05-18T02:15:36.507Z,72.41
2019-05-18T02:16:37.956Z,72.20
2019-05-18T02:17:38.395Z,72.31
2019-05-18T02:18:39.826Z,72.24
2019-05-18T02:19:40.246Z,72.41
2019-05-18T02:20:40.667Z,72.34
2019-05-18T02:21:41.113Z,72.55
2019-05-18T02:22:41.540Z,72.44
2019-05-18T02:23:41.964Z,72.41
2019-05-18T02:24:49.255Z,72.44
2019-05-18T02:25:49.679Z,72.44
2019-05-18T02:26:52.144Z,72.24
2019-05-18T02:27:52.571Z,72.44
2019-05-18T02:28:53.003Z,72.34
2019-05-18T02:29:53.437Z,72.34
2019-05-18T02:30:53.947Z,72.44
2019-05-18T02:31:54.392Z,72.44
2019-05-18T02:32:55.816Z,72.34
2019-05-18T02:33:56.238Z,72.44
2019-05-18T02:34:56.671Z,72.44
2019-05-18T02:35:57.120Z,72.44
2019-05-18T02:36:57.667Z,72.44
2019-05-18T02:37:58.092Z,72.34
2019-05-18T02:38:59.539Z,72.58
2019-05-18T02:39:59.967Z,72.34
2019-05-18T02:41:23.403Z,72.34
2019-05-18T02:42:23.842Z,72.14
2019-05-18T02:43:24.276Z,72.44
2019-05-18T02:44:24.704Z,72.27
2019-05-18T02:45:26.221Z,72.34
2019-05-18T02:46:26.686Z,72.27
2019-05-18T02:48:04.754Z,72.24
2019-05-18T02:49:05.186Z,72.27
2019-05-18T02:50:20.260Z,72.17
2019-05-18T02:51:20.693Z,72.27
2019-05-18T02:52:22.159Z,72.48
2019-05-18T02:53:22.601Z,72.34
2019-05-18T02:54:24.030Z,72.38
2019-05-18T02:55:24.559Z,72.24
2019-05-18T02:56:46.016Z,71.97
2019-05-18T02:57:46.441Z,72.17
2019-05-18T03:00:25.214Z,72.27
2019-05-18T03:03:59.816Z,72.07
2019-05-18T03:05:00.337Z,72.20
2019-05-18T03:06:00.757Z,72.38
2019-05-18T03:07:08.731Z,72.17
2019-05-18T03:08:09.159Z,72.41
2019-05-18T03:09:09.587Z,72.41
2019-05-18T03:10:10.014Z,72.38
2019-05-18T03:11:10.462Z,72.20
2019-05-18T03:12:10.916Z,72.10
2019-05-18T03:13:13.377Z,72.17
2019-05-18T03:14:13.844Z,72.20
2019-05-18T03:15:14.285Z,72.10
2019-05-18T03:16:14.717Z,72.20
2019-05-18T03:17:15.185Z,72.07
2019-05-18T03:18:15.627Z,72.31
2019-05-18T03:19:16.068Z,72.27
2019-05-18T03:20:16.520Z,72.20
2019-05-18T03:21:17.000Z,72.20
2019-05-18T03:22:17.472Z,72.31
2019-05-18T03:23:17.922Z,72.38
2019-05-18T03:24:18.344Z,72.20
2019-05-18T03:25:18.769Z,72.10
2019-05-18T03:26:19.192Z,72.00
2019-05-18T03:27:42.235Z,72.10
2019-05-18T03:28:42.665Z,72.31
2019-05-18T03:30:10.714Z,72.31
2019-05-18T03:31:11.175Z,72.20
2019-05-18T03:32:13.650Z,72.31
2019-05-18T03:33:14.097Z,72.20
2019-05-18T03:34:14.534Z,72.20
2019-05-18T03:35:14.988Z,72.10
2019-05-18T03:36:15.444Z,72.20
2019-05-18T03:37:15.887Z,72.31
2019-05-18T03:38:16.322Z,72.10
2019-05-18T03:39:16.764Z,72.61
2019-05-18T03:40:17.237Z,72.20
2019-05-18T03:41:17.678Z,72.00
2019-05-18T03:42:18.192Z,72.10
2019-05-18T03:43:18.612Z,71.90
2019-05-18T03:44:19.036Z,72.31
2019-05-18T03:45:19.453Z,72.31
2019-05-18T03:46:23.811Z,72.31
2019-05-18T03:47:24.578Z,72.41
2019-05-18T03:50:56.654Z,72.41
2019-05-18T03:52:07.109Z,72.31
2019-05-18T03:53:07.526Z,72.20
2019-05-18T03:54:28.960Z,72.41
2019-05-18T03:55:29.388Z,72.00
2019-05-18T03:56:30.825Z,71.90
2019-05-18T03:57:31.256Z,72.72
2019-05-18T03:58:47.579Z,72.72
2019-05-18T03:59:48.000Z,72.61
2019-05-18T04:00:50.445Z,72.61
2019-05-18T04:01:50.874Z,72.00
2019-05-18T04:02:53.334Z,72.72
2019-05-18T04:03:53.765Z,72.00
2019-05-18T04:07:20.734Z,72.61
2019-05-18T04:08:21.155Z,72.72
2019-05-18T04:09:23.593Z,72.20
2019-05-18T04:10:24.019Z,72.51
2019-05-18T04:11:32.206Z,72.41
2019-05-18T04:12:32.657Z,72.61
2019-05-18T04:14:50.144Z,72.51
2019-05-18T04:17:27.654Z,72.31
2019-05-18T04:20:37.469Z,72.51
2019-05-18T04:21:53.592Z,72.31
2019-05-18T04:22:54.028Z,72.51
2019-05-18T04:23:56.468Z,72.72
2019-05-18T04:24:56.891Z,72.10
2019-05-18T04:25:57.331Z,71.97
2019-05-18T04:26:57.849Z,72.00
2019-05-18T04:28:19.285Z,72.00
2019-05-18T04:29:19.709Z,72.58
2019-05-18T04:30:21.154Z,72.27
2019-05-18T04:31:21.590Z,72.38
2019-05-18T04:32:25.104Z,72.38
2019-05-18T04:33:25.523Z,72.38
2019-05-18T04:34:25.958Z,72.17
2019-05-18T04:35:26.395Z,72.07
2019-05-18T04:36:26.832Z,72.24
2019-05-18T04:37:27.276Z,72.17
2019-05-18T04:38:27.757Z,72.44
2019-05-18T04:39:28.189Z,72.44
2019-05-18T04:40:28.616Z,72.48
2019-05-18T04:41:29.062Z,72.34
2019-05-18T04:42:29.513Z,71.93
2019-05-18T04:43:30.019Z,72.14
2019-05-18T04:44:30.451Z,72.24
2019-05-18T04:45:30.897Z,72.31
2019-05-18T04:46:31.328Z,71.90
2019-05-18T04:47:31.776Z,72.34
2019-05-18T04:48:32.202Z,72.20
2019-05-18T04:49:32.631Z,72.20
2019-05-18T04:50:33.088Z,72.20
2019-05-18T04:51:33.524Z,72.31
2019-05-18T04:52:33.972Z,72.20
2019-05-18T04:53:34.411Z,72.41
2019-05-18T04:54:34.859Z,72.31
2019-05-18T04:55:35.285Z,72.41
2019-05-18T04:56:35.715Z,72.28
2019-05-18T04:57:36.153Z,72.28
2019-05-18T04:58:36.584Z,72.28
2019-05-18T04:59:37.020Z,72.17
2019-05-18T05:00:37.518Z,72.38
2019-05-18T05:01:37.973Z,72.28
2019-05-18T05:02:38.434Z,72.48
2019-05-18T05:03:38.863Z,72.48
2019-05-18T05:04:39.289Z,72.38
2019-05-18T05:05:39.718Z,72.17
2019-05-18T05:06:40.147Z,72.34
2019-05-18T05:07:40.595Z,71.97
2019-05-18T05:08:41.034Z,71.97
2019-05-18T05:09:41.454Z,72.34
2019-05-18T05:10:41.879Z,72.24
2019-05-18T05:11:42.325Z,71.86
2019-05-18T05:12:42.771Z,72.14
2019-05-18T05:13:43.195Z,72.14
2019-05-18T05:14:43.630Z,72.04
2019-05-18T05:15:44.058Z,72.34
2019-05-18T05:16:44.513Z,72.14
2019-05-18T05:17:44.970Z,72.14
2019-05-18T05:18:45.404Z,72.11
2019-05-18T05:19:45.833Z,72.31
2019-05-18T05:20:46.335Z,71.80
2019-05-18T05:21:46.841Z,72.00
2019-05-18T05:22:47.315Z,71.80
2019-05-18T05:23:47.755Z,71.80
2019-05-18T05:24:48.309Z,72.11
2019-05-18T05:25:48.777Z,72.58
2019-05-18T05:26:49.213Z,72.72
2019-05-18T05:27:49.669Z,72.58
2019-05-18T05:28:51.113Z,72.69
2019-05-18T05:29:51.538Z,72.38
2019-05-18T05:30:52.050Z,72.48
2019-05-18T05:31:52.466Z,72.38
2019-05-18T05:32:57.092Z,72.17
2019-05-18T05:33:57.594Z,72.24
2019-05-18T05:34:59.027Z,72.04
2019-05-18T05:35:59.458Z,72.04
2019-05-18T05:37:00.886Z,71.94
2019-05-18T05:38:01.315Z,72.04
2019-05-18T05:39:23.803Z,71.73
2019-05-18T05:40:24.225Z,72.04
2019-05-18T05:41:46.672Z,72.34
2019-05-18T05:42:47.112Z,72.11
2019-05-18T05:44:10.631Z,72.11
2019-05-18T05:45:11.083Z,72.11
2019-05-18T05:46:11.544Z,72.21
2019-05-18T05:47:12.028Z,72.00
2019-05-18T05:48:12.482Z,72.00
2019-05-18T05:51:30.123Z,71.97
2019-05-18T05:52:41.638Z,71.59
2019-05-18T05:53:42.203Z,71.91
2019-05-18T05:54:42.695Z,71.91
2019-05-18T05:55:43.154Z,72.07
2019-05-18T05:57:06.670Z,71.87
2019-05-18T05:58:07.118Z,71.67
2019-05-18T05:59:08.635Z,72.38
2019-05-18T06:00:09.080Z,72.38
2019-05-18T06:01:10.590Z,71.97
2019-05-18T06:02:11.019Z,71.77
2019-05-18T06:03:15.966Z,71.84
2019-05-18T06:04:16.396Z,72.14
2019-05-18T06:05:17.960Z,72.04
2019-05-18T06:06:18.379Z,72.24
2019-05-18T06:07:18.823Z,71.73
2019-05-18T06:08:19.279Z,71.73
2019-05-18T06:09:56.422Z,71.94
2019-05-18T06:10:56.857Z,71.84
2019-05-18T06:11:57.353Z,71.80
2019-05-18T06:12:57.800Z,71.91
2019-05-18T06:16:24.867Z,72.00
2019-05-18T06:19:35.846Z,72.17
2019-05-18T06:20:50.427Z,72.21
2019-05-18T06:21:42.673Z,72.11
2019-05-18T06:22:43.127Z,72.28
2019-05-18T06:23:43.561Z,71.77
2019-05-18T06:24:43.990Z,71.87
2019-05-18T06:25:44.423Z,71.56
2019-05-18T06:26:44.850Z,71.87
2019-05-18T06:27:45.277Z,71.97
2019-05-18T06:28:45.718Z,71.73
2019-05-18T06:29:46.144Z,71.63
2019-05-18T06:30:46.645Z,71.73
2019-05-18T06:31:47.112Z,71.73
2019-05-18T06:32:47.531Z,71.73
2019-05-18T06:33:48.088Z,71.80
2019-05-18T06:34:48.545Z,71.91
2019-05-18T06:35:49.090Z,72.01
2019-05-18T06:36:49.588Z,72.11
2019-05-18T06:37:50.123Z,71.91
2019-05-18T06:38:50.566Z,72.01
2019-05-18T06:39:51.058Z,71.60
2019-05-18T06:40:51.480Z,71.47
2019-05-18T06:41:56.910Z,71.97
2019-05-18T06:42:57.347Z,71.67
2019-05-18T06:43:59.819Z,71.56
2019-05-18T06:45:00.255Z,71.06
2019-05-18T06:46:00.726Z,71.06
2019-05-18T06:47:01.205Z,70.62
2019-05-18T06:48:01.642Z,70.51
2019-05-18T06:49:02.121Z,70.51
2019-05-18T06:50:02.518Z,70.51
2019-05-18T06:51:07.105Z,70.51
2019-05-18T06:52:08.291Z,70.28
2019-05-18T06:53:08.733Z,70.68
2019-05-18T06:54:09.177Z,70.99
2019-05-18T06:55:09.604Z,70.99
2019-05-18T06:56:10.030Z,70.28
2019-05-18T06:57:10.452Z,70.38
2019-05-18T06:58:10.869Z,70.25
2019-05-18T06:59:11.306Z,70.04
2019-05-18T07:00:11.729Z,70.14
2019-05-18T07:01:12.153Z,70.14
2019-05-18T07:02:12.648Z,70.04
2019-05-18T07:03:13.117Z,69.74
2019-05-18T07:04:13.582Z,69.60
2019-05-18T07:05:14.003Z,68.79
2019-05-18T07:06:14.483Z,68.99
2019-05-18T07:07:14.903Z,69.17
2019-05-18T07:08:15.327Z,69.37
2019-05-18T07:09:15.761Z,69.57
2019-05-18T07:10:21.169Z,68.55
2019-05-18T07:11:21.601Z,68.55
2019-05-18T07:12:22.031Z,68.45
2019-05-18T07:13:22.467Z,68.55
2019-05-18T07:14:25.902Z,68.62
2019-05-18T07:15:26.614Z,69.03
2019-05-18T07:16:27.033Z,68.42
2019-05-18T07:17:27.479Z,68.83
2019-05-18T07:18:27.916Z,68.12
2019-05-18T07:19:28.377Z,68.32
2019-05-18T07:20:28.813Z,68.42
2019-05-18T07:21:29.230Z,68.32
2019-05-18T07:22:29.653Z,68.32
2019-05-18T07:23:30.071Z,68.01
2019-05-18T07:24:30.526Z,68.32
2019-05-18T07:25:30.975Z,68.01
2019-05-18T07:26:31.399Z,67.71
2019-05-18T07:27:31.823Z,67.91
2019-05-18T07:28:32.279Z,67.61
2019-05-18T07:29:32.723Z,66.66
2019-05-18T07:30:33.167Z,66.66
2019-05-18T07:31:33.594Z,67.27
2019-05-18T07:32:34.036Z,66.97
2019-05-18T07:33:34.458Z,66.97
2019-05-18T07:34:34.931Z,66.94
2019-05-18T07:35:35.382Z,66.94
2019-05-18T07:36:35.804Z,66.33
2019-05-18T07:37:36.470Z,66.40
2019-05-18T07:38:37.130Z,66.53
2019-05-18T07:39:37.612Z,66.60
2019-05-18T07:40:38.067Z,66.60
2019-05-18T07:41:46.281Z,66.50
2019-05-18T07:42:44.909Z,66.47
2019-05-18T07:43:45.347Z,66.06
2019-05-18T07:44:45.843Z,65.96
2019-05-18T07:45:46.297Z,66.24
2019-05-18T07:46:46.734Z,65.93
2019-05-18T07:47:47.181Z,65.59
2019-05-18T07:48:47.625Z,65.59
2019-05-18T07:49:48.074Z,65.19
2019-05-18T07:50:48.499Z,65.59
2019-05-18T07:51:48.952Z,65.59
2019-05-18T07:52:49.397Z,65.19
2019-05-18T07:53:49.830Z,65.19
2019-05-18T07:54:50.321Z,65.59
2019-05-18T07:55:50.757Z,65.39
2019-05-18T07:56:51.175Z,65.50
2019-05-18T07:57:51.713Z,65.39
2019-05-18T07:58:52.215Z,65.36
2019-05-18T07:59:52.671Z,65.16
2019-05-18T08:00:53.103Z,64.76
2019-05-18T08:01:53.567Z,65.06
2019-05-18T08:02:53.991Z,64.35
2019-05-18T08:03:54.428Z,64.55
2019-05-18T08:04:54.914Z,64.65
2019-05-18T08:05:55.335Z,64.22
2019-05-18T08:06:56.673Z,64.52
2019-05-18T08:07:57.098Z,64.52
2019-05-18T08:08:57.523Z,64.32
2019-05-18T08:09:58.062Z,64.22
2019-05-18T08:10:58.480Z,64.42
2019-05-18T08:11:58.963Z,64.52
2019-05-18T08:12:59.401Z,63.81
2019-05-18T08:13:59.896Z,63.41
2019-05-18T08:15:00.332Z,63.78
2019-05-18T08:16:02.776Z,63.78
2019-05-18T08:17:03.221Z,63.99
2019-05-18T08:18:03.722Z,63.78
2019-05-18T08:19:04.155Z,63.76
2019-05-18T08:20:04.704Z,63.65
2019-05-18T08:21:05.138Z,63.48
2019-05-18T08:22:05.674Z,63.48
2019-05-18T08:23:06.114Z,63.55
2019-05-18T08:24:15.318Z,63.65
2019-05-18T08:25:15.789Z,63.85
2019-05-18T08:26:16.253Z,63.96
2019-05-18T08:27:16.695Z,64.16
2019-05-18T08:28:17.185Z,63.58
2019-05-18T08:29:17.602Z,63.99
2019-05-18T08:30:18.052Z,64.09
2019-05-18T08:31:18.483Z,63.78
2019-05-18T08:32:18.952Z,64.09
2019-05-18T08:33:19.376Z,63.99
2019-05-18T08:34:20.912Z,63.99
2019-05-18T08:35:21.359Z,64.19
2019-05-18T08:36:22.874Z,64.19
2019-05-18T08:37:23.312Z,63.99
2019-05-18T08:38:30.366Z,63.68
2019-05-18T08:39:30.798Z,63.28
2019-05-18T08:40:31.410Z,63.58
2019-05-18T08:41:31.850Z,63.96
2019-05-18T08:42:39.296Z,63.55
2019-05-18T08:43:39.724Z,63.25
2019-05-18T08:44:40.261Z,63.35
2019-05-18T08:45:40.808Z,62.95
2019-05-18T08:46:41.283Z,63.25
2019-05-18T08:47:41.710Z,63.15
2019-05-18T08:48:42.212Z,63.85
2019-05-18T08:49:42.639Z,63.45
2019-05-18T08:50:44.206Z,63.15
2019-05-18T08:51:44.670Z,63.73
2019-05-18T08:52:45.204Z,63.05
2019-05-18T08:53:45.640Z,63.15
2019-05-18T08:54:46.140Z,62.95
2019-05-18T08:55:46.611Z,62.82
2019-05-18T08:56:47.077Z,62.71
2019-05-18T08:57:47.511Z,62.92
2019-05-18T08:58:48.099Z,62.82
2019-05-18T08:59:48.542Z,62.71
2019-05-18T09:00:49.068Z,62.71
2019-05-18T09:01:49.485Z,62.92
2019-05-18T09:02:49.967Z,62.28
2019-05-18T09:03:50.385Z,62.38
2019-05-18T09:05:27.870Z,62.08
2019-05-18T09:06:28.322Z,62.18
2019-05-18T09:07:45.290Z,62.18
2019-05-18T09:08:45.726Z,62.25
2019-05-18T09:09:46.226Z,62.25
2019-05-18T09:10:46.649Z,62.25
2019-05-18T09:11:47.193Z,61.61
2019-05-18T09:12:47.618Z,61.41
2019-05-18T09:13:48.098Z,61.29
2019-05-18T09:14:48.534Z,60.78
2019-05-18T09:15:49.032Z,61.11
2019-05-18T09:16:49.484Z,61.32
2019-05-18T09:17:52.026Z,61.61
2019-05-18T09:18:52.470Z,61.52
2019-05-18T09:19:52.957Z,60.88
2019-05-18T09:20:53.411Z,60.88
2019-05-18T09:21:54.952Z,61.08
2019-05-18T09:22:55.377Z,60.98
2019-05-18T09:24:16.807Z,61.16
2019-05-18T09:25:17.234Z,61.05
2019-05-18T09:26:17.779Z,60.45
2019-05-18T09:27:18.228Z,60.05
2019-05-18T09:28:26.288Z,60.55
2019-05-18T09:29:26.710Z,60.98
2019-05-18T09:30:27.221Z,60.35
2019-05-18T09:31:27.660Z,60.15
2019-05-18T09:32:28.197Z,60.55
2019-05-18T09:33:28.632Z,60.42
2019-05-18T09:34:29.093Z,60.12
2019-05-18T09:35:29.547Z,59.69
2019-05-18T09:36:31.093Z,60.09
2019-05-18T09:37:31.523Z,59.99
2019-05-18T09:38:33.283Z,60.19
2019-05-18T09:39:34.045Z,60.09
2019-05-18T09:40:34.566Z,59.89
2019-05-18T09:41:35.016Z,59.79
2019-05-18T09:42:35.498Z,59.28
2019-05-18T09:43:35.925Z,59.36
2019-05-18T09:44:36.434Z,58.88
2019-05-18T09:45:36.851Z,59.06
2019-05-18T09:46:38.325Z,59.46
2019-05-18T09:47:38.751Z,59.56
2019-05-18T09:48:40.250Z,59.06
2019-05-18T09:49:40.674Z,58.86
2019-05-18T09:50:41.185Z,58.75
2019-05-18T09:51:41.665Z,58.83
2019-05-18T09:52:45.525Z,59.23
2019-05-18T09:53:51.442Z,58.62
2019-05-18T09:54:54.021Z,58.62
2019-05-18T09:55:54.443Z,58.83
2019-05-18T09:56:54.992Z,59.23
2019-05-18T09:57:55.446Z,58.62
2019-05-18T09:58:56.708Z,59.03
2019-05-18T09:59:57.132Z,58.53
2019-05-18T10:00:57.637Z,58.40
2019-05-18T10:01:58.076Z,58.09
2019-05-18T10:02:59.602Z,58.20
2019-05-18T10:04:00.026Z,58.20
2019-05-18T10:05:00.541Z,58.29
2019-05-18T10:06:00.973Z,57.79
2019-05-18T10:07:01.504Z,58.40
2019-05-18T10:08:01.960Z,57.90
2019-05-18T10:09:02.630Z,58.20
2019-05-18T10:10:03.135Z,58.40
2019-05-18T10:11:05.591Z,58.00
2019-05-18T10:12:06.041Z,58.00
2019-05-18T10:13:06.549Z,58.60
2019-05-18T10:14:06.972Z,58.60
2019-05-18T10:15:08.503Z,58.50
2019-05-18T10:16:08.934Z,58.50
2019-05-18T10:17:09.405Z,58.00
2019-05-18T10:18:09.847Z,58.00
2019-05-18T10:19:18.289Z,58.20
2019-05-18T10:20:18.713Z,57.70
2019-05-18T10:21:19.240Z,57.79
2019-05-18T10:22:19.687Z,57.17
2019-05-18T10:23:20.143Z,57.26
2019-05-18T10:24:20.578Z,57.34
2019-05-18T10:25:22.023Z,56.84
2019-05-18T10:26:22.481Z,57.31
2019-05-18T10:27:27.993Z,56.91
2019-05-18T10:28:28.438Z,56.38
2019-05-18T10:29:28.867Z,56.08
2019-05-18T10:30:29.308Z,56.45
2019-05-18T10:31:30.766Z,56.02
2019-05-18T10:32:31.204Z,55.52
2019-05-18T10:33:32.724Z,54.72
2019-05-18T10:34:33.150Z,55.02
2019-05-18T10:35:34.733Z,54.60
2019-05-18T10:36:35.181Z,54.77
2019-05-18T10:37:35.633Z,54.57
2019-05-18T10:38:36.065Z,54.57
2019-05-18T10:39:38.703Z,54.85
2019-05-18T10:40:39.324Z,54.57
2019-05-18T10:41:39.847Z,53.94
2019-05-18T10:42:40.293Z,53.74
2019-05-18T10:43:48.358Z,54.14
2019-05-18T10:44:48.779Z,52.94
2019-05-18T10:45:49.226Z,53.22
2019-05-18T10:46:49.665Z,52.82
2019-05-18T10:47:52.180Z,52.59
2019-05-18T10:48:52.615Z,52.09
2019-05-18T10:49:53.111Z,52.47
2019-05-18T10:50:53.627Z,52.17
2019-05-18T10:51:54.221Z,51.47
2019-05-18T10:52:54.659Z,51.04
2019-05-18T10:53:55.193Z,52.27
2019-05-18T10:54:55.638Z,51.37
2019-05-18T10:55:57.148Z,51.15
2019-05-18T10:56:57.614Z,51.37
2019-05-18T10:57:59.103Z,51.67
2019-05-18T10:58:59.539Z,51.89
2019-05-18T11:00:21.030Z,52.29
2019-05-18T11:01:21.458Z,51.79
2019-05-18T11:02:22.001Z,52.00
2019-05-18T11:03:22.433Z,51.79
2019-05-18T11:04:23.923Z,51.67
2019-05-18T11:05:24.398Z,51.67
2019-05-18T11:06:24.833Z,51.27
2019-05-18T11:07:28.719Z,51.17
2019-05-18T11:08:29.481Z,51.67
2019-05-18T11:09:29.908Z,51.07
2019-05-18T11:10:31.442Z,51.17
2019-05-18T11:11:31.943Z,51.20
2019-05-18T11:12:35.813Z,51.20
2019-05-18T11:13:36.290Z,51.69
2019-05-18T11:14:38.750Z,52.00
2019-05-18T11:15:39.202Z,52.09
2019-05-18T11:16:39.787Z,51.50
2019-05-18T11:17:40.234Z,51.22
2019-05-18T11:18:41.746Z,51.62
2019-05-18T11:19:42.181Z,51.82
2019-05-18T11:20:42.680Z,52.02
2019-05-18T11:21:43.124Z,51.62
2019-05-18T11:22:44.596Z,51.12
2019-05-18T11:23:47.950Z,51.42
2019-05-18T11:24:48.627Z,51.72
2019-05-18T11:25:49.046Z,51.62
2019-05-18T11:27:04.277Z,52.29
2019-05-18T11:28:04.711Z,51.20
2019-05-18T11:29:23.250Z,50.59
2019-05-18T11:30:24.511Z,50.77
2019-05-18T11:31:25.953Z,49.97
2019-05-18T11:32:26.397Z,50.37
2019-05-18T11:33:26.822Z,50.54
2019-05-18T11:34:27.250Z,50.45
2019-05-18T11:35:34.271Z,50.04
2019-05-18T11:36:34.807Z,49.65
2019-05-18T11:37:36.246Z,49.55
2019-05-18T11:38:36.665Z,49.12
2019-05-18T11:39:38.094Z,49.42
2019-05-18T11:40:38.511Z,49.42
2019-05-18T11:41:39.970Z,49.22
2019-05-18T11:42:40.415Z,49.32
2019-05-18T11:43:41.841Z,49.22
2019-05-18T11:44:42.273Z,49.55
2019-05-18T11:45:50.274Z,49.74
2019-05-18T11:46:50.700Z,49.74
2019-05-18T11:47:53.157Z,49.95
2019-05-18T11:48:53.571Z,49.25
2019-05-18T11:49:56.022Z,49.25
2019-05-18T11:50:56.460Z,49.62
2019-05-18T11:51:58.894Z,49.65
2019-05-18T11:52:59.422Z,49.44
2019-05-18T11:53:59.851Z,49.32
2019-05-18T11:55:00.357Z,49.52
2019-05-18T11:56:07.783Z,48.40
2019-05-18T11:57:08.244Z,48.60
2019-05-18T11:58:09.708Z,48.40
2019-05-18T11:59:10.133Z,49.20
2019-05-18T12:00:10.575Z,48.80
2019-05-18T12:01:11.000Z,49.10
2019-05-18T12:03:27.730Z,48.28
2019-05-18T12:04:28.181Z,48.38
2019-05-18T12:05:28.943Z,48.38
2019-05-18T12:06:29.439Z,48.18
2019-05-18T12:07:29.902Z,48.16
2019-05-18T12:08:30.368Z,48.46
2019-05-18T12:09:30.807Z,48.53
2019-05-18T12:10:32.330Z,48.11
2019-05-18T12:11:32.763Z,47.91
2019-05-18T12:12:33.296Z,47.96
2019-05-18T12:13:33.734Z,47.74
2019-05-18T12:14:35.215Z,47.72
2019-05-18T12:15:35.649Z,47.80
2019-05-18T12:16:36.158Z,47.85
2019-05-18T12:17:36.601Z,47.45
2019-05-18T12:18:37.020Z,46.93
2019-05-18T12:19:37.503Z,47.01
2019-05-18T12:20:37.920Z,46.69
2019-05-18T12:21:38.437Z,46.37
2019-05-18T12:22:38.872Z,46.35
2019-05-18T12:23:41.317Z,45.81
2019-05-18T12:24:41.775Z,44.90
2019-05-18T12:25:43.279Z,44.68
2019-05-18T12:26:43.703Z,45.05
2019-05-18T12:27:44.534Z,44.24
2019-05-18T12:28:45.035Z,43.74
2019-05-18T12:29:45.465Z,43.55
2019-05-18T12:30:45.896Z,43.33
2019-05-18T12:31:53.369Z,42.82
2019-05-18T12:32:53.828Z,42.99
2019-05-18T12:33:54.392Z,41.39
2019-05-18T12:34:54.824Z,40.98
2019-05-18T12:35:56.354Z,40.98
2019-05-18T12:36:56.781Z,38.62
2019-05-18T12:37:59.370Z,37.85
2019-05-18T12:38:59.793Z,38.14
2019-05-18T12:40:00.327Z,38.14
2019-05-18T12:41:00.771Z,39.01
2019-05-18T12:42:01.320Z,39.31
2019-05-18T12:43:01.764Z,39.20
2019-05-18T12:44:03.288Z,38.42
2019-05-18T12:45:03.721Z,38.32
2019-05-18T12:46:04.226Z,38.10
2019-05-18T12:47:04.684Z,38.40
2019-05-18T12:48:05.236Z,38.49
2019-05-18T12:49:05.671Z,38.60
2019-05-18T12:50:06.128Z,38.09
2019-05-18T12:51:06.552Z,38.58
2019-05-18T12:52:07.169Z,35.92
2019-05-18T12:53:07.607Z,35.82
2019-05-18T12:54:08.208Z,36.00
2019-05-18T12:55:08.630Z,36.00
2019-05-18T12:56:09.153Z,35.82
2019-05-18T12:57:09.577Z,35.51
2019-05-18T12:58:11.033Z,36.11
2019-05-18T12:59:11.453Z,36.23
2019-05-18T13:00:11.893Z,37.49
2019-05-18T13:01:12.333Z,37.04
2019-05-18T13:02:14.792Z,37.15
2019-05-18T13:03:15.244Z,37.87
2019-05-18T13:04:15.692Z,37.55
2019-05-18T13:05:16.161Z,37.83
2019-05-18T13:06:17.616Z,37.32
2019-05-18T13:07:18.051Z,37.01
2019-05-18T13:08:18.500Z,37.01
2019-05-18T13:09:18.961Z,36.99
2019-05-18T13:10:19.502Z,36.80
2019-05-18T13:11:19.928Z,37.08
2019-05-18T13:12:20.397Z,37.08
2019-05-18T13:13:20.859Z,36.88
2019-05-18T13:14:21.298Z,36.57
2019-05-18T13:15:21.727Z,36.87
2019-05-18T13:16:23.174Z,35.88
2019-05-18T13:17:23.606Z,35.78
2019-05-18T13:18:25.072Z,35.88
2019-05-18T13:19:25.501Z,35.18
2019-05-18T13:20:27.934Z,35.28
2019-05-18T13:21:28.361Z,35.06
2019-05-18T13:22:30.871Z,35.26
2019-05-18T13:23:31.315Z,35.66
2019-05-18T13:24:44.822Z,35.66
2019-05-18T13:25:40.150Z,35.75
2019-05-18T13:26:40.584Z,35.46
2019-05-18T13:27:41.025Z,35.44
2019-05-18T13:28:42.492Z,35.34
2019-05-18T13:29:42.926Z,35.44
2019-05-18T13:30:44.367Z,34.34
2019-05-18T13:31:44.809Z,33.94
2019-05-18T13:32:45.242Z,34.42
2019-05-18T13:33:45.692Z,34.13